sensor_id;sensor_type;location;lat;lon;timestamp;temperature;humidity
23729;DHT22;12045;60.214;24.724;2024-03-02T00:01:55;2.20;99.90
23729;DHT22;12045;60.214;24.724;2024-03-02T00:04:23;1.70;99.90
23729;DHT22;12045;60.214;24.724;2024-03-02T00:06:53;1.60;99.90
23729;DHT22;12045;60.214;24.724;2024-03-02T00:09:30;1.60;99.90
23729;DHT22;12045;60.214;24.724;2024-03-02T00:12:00;1.60;99.90
23729;DHT22;12045;60.214;24.724;2024-03-02T00:14:30;1.70;99.90
23729;DHT22;12045;60.214;24.724;2024-03-02T00:17:00;1.70;99.90
23729;DHT22;12045;60.214;24.724;2024-03-02T00:19:29;1.70;99.90
23729;DHT22;12045;60.214;24.724;2024-03-02T00:22:00;1.80;99.90
23729;DHT22;12045;60.214;24.724;2024-03-02T00:24:34;2.20;99.90
23729;DHT22;12045;60.214;24.724;2024-03-02T00:27:04;2.50;99.90
23729;DHT22;12045;60.214;24.724;2024-03-02T00:29:32;1.60;99.90
23729;DHT22;12045;60.214;24.724;2024-03-02T00:32:01;1.70;99.90
23729;DHT22;12045;60.214;24.724;2024-03-02T00:34:29;1.60;99.90
23729;DHT22;12045;60.214;24.724;2024-03-02T00:36:58;1.80;99.90
23729;DHT22;12045;60.214;24.724;2024-03-02T00:39:29;2.10;99.90
23729;DHT22;12045;60.214;24.724;2024-03-02T00:41:56;2.10;99.90
23729;DHT22;12045;60.214;24.724;2024-03-02T00:44:27;2.00;99.90
23729;DHT22;12045;60.214;24.724;2024-03-02T00:47:00;1.00;99.90
23729;DHT22;12045;60.214;24.724;2024-03-02T00:49:28;1.70;99.90
23729;DHT22;12045;60.214;24.724;2024-03-02T00:51:58;1.90;99.90
23729;DHT22;12045;60.214;24.724;2024-03-02T00:54:26;1.60;99.90
23729;DHT22;12045;60.214;24.724;2024-03-02T00:56:57;1.50;99.90
23729;DHT22;12045;60.214;24.724;2024-03-02T00:59:25;1.50;99.90
23729;DHT22;12045;60.214;24.724;2024-03-02T01:01:52;1.90;99.90
23729;DHT22;12045;60.214;24.724;2024-03-02T01:04:20;1.80;99.90
23729;DHT22;12045;60.214;24.724;2024-03-02T01:06:48;2.30;99.90
23729;DHT22;12045;60.214;24.724;2024-03-02T01:09:15;2.10;99.90
23729;DHT22;12045;60.214;24.724;2024-03-02T01:11:45;2.30;99.90
23729;DHT22;12045;60.214;24.724;2024-03-02T01:14:13;1.80;99.90
23729;DHT22;12045;60.214;24.724;2024-03-02T01:16:42;1.60;99.90
23729;DHT22;12045;60.214;24.724;2024-03-02T01:19:10;1.60;99.90
23729;DHT22;12045;60.214;24.724;2024-03-02T01:21:41;1.60;99.90
23729;DHT22;12045;60.214;24.724;2024-03-02T01:24:09;1.60;99.90
23729;DHT22;12045;60.214;24.724;2024-03-02T01:26:37;2.20;99.90
23729;DHT22;12045;60.214;24.724;2024-03-02T01:29:05;2.00;99.90
23729;DHT22;12045;60.214;24.724;2024-03-02T01:31:36;2.50;99.90
23729;DHT22;12045;60.214;24.724;2024-03-02T01:34:05;1.60;99.90
23729;DHT22;12045;60.214;24.724;2024-03-02T01:36:32;1.40;99.90
23729;DHT22;12045;60.214;24.724;2024-03-02T01:39:00;2.20;99.90
23729;DHT22;12045;60.214;24.724;2024-03-02T01:41:28;2.60;99.90
23729;DHT22;12045;60.214;24.724;2024-03-02T01:43:58;1.80;99.90
23729;DHT22;12045;60.214;24.724;2024-03-02T01:46:27;2.10;99.90
23729;DHT22;12045;60.214;24.724;2024-03-02T01:48:55;1.50;99.90
23729;DHT22;12045;60.214;24.724;2024-03-02T01:51:23;1.70;99.90
23729;DHT22;12045;60.214;24.724;2024-03-02T01:53:51;1.50;99.90
23729;DHT22;12045;60.214;24.724;2024-03-02T01:56:18;1.80;99.90
23729;DHT22;12045;60.214;24.724;2024-03-02T01:58:47;1.80;99.90
23729;DHT22;12045;60.214;24.724;2024-03-02T02:01:14;1.50;99.90
23729;DHT22;12045;60.214;24.724;2024-03-02T02:03:43;2.10;99.90
23729;DHT22;12045;60.214;24.724;2024-03-02T02:06:11;1.40;99.90
23729;DHT22;12045;60.214;24.724;2024-03-02T02:08:40;2.30;99.90
23729;DHT22;12045;60.214;24.724;2024-03-02T02:11:08;2.10;99.90
23729;DHT22;12045;60.214;24.724;2024-03-02T02:13:36;1.70;99.90
23729;DHT22;12045;60.214;24.724;2024-03-02T02:16:09;1.70;99.90
23729;DHT22;12045;60.214;24.724;2024-03-02T02:18:36;1.80;99.90
23729;DHT22;12045;60.214;24.724;2024-03-02T02:21:04;1.90;99.90
23729;DHT22;12045;60.214;24.724;2024-03-02T02:23:32;2.60;99.90
23729;DHT22;12045;60.214;24.724;2024-03-02T02:25:59;2.30;99.90
23729;DHT22;12045;60.214;24.724;2024-03-02T02:28:27;2.20;99.90
23729;DHT22;12045;60.214;24.724;2024-03-02T02:30:55;2.60;99.90
23729;DHT22;12045;60.214;24.724;2024-03-02T02:33:24;1.80;99.90
23729;DHT22;12045;60.214;24.724;2024-03-02T02:35:52;1.60;99.90
23729;DHT22;12045;60.214;24.724;2024-03-02T02:38:20;2.50;99.90
23729;DHT22;12045;60.214;24.724;2024-03-02T02:40:48;2.30;99.90
23729;DHT22;12045;60.214;24.724;2024-03-02T02:43:15;1.90;99.90
23729;DHT22;12045;60.214;24.724;2024-03-02T02:45:45;1.90;99.90
23729;DHT22;12045;60.214;24.724;2024-03-02T02:48:13;2.20;99.90
23729;DHT22;12045;60.214;24.724;2024-03-02T02:50:41;2.30;99.90
23729;DHT22;12045;60.214;24.724;2024-03-02T02:53:09;2.30;99.90
23729;DHT22;12045;60.214;24.724;2024-03-02T02:55:39;0.70;99.90
23729;DHT22;12045;60.214;24.724;2024-03-02T02:58:07;2.40;99.90
23729;DHT22;12045;60.214;24.724;2024-03-02T03:00:36;2.10;99.90
23729;DHT22;12045;60.214;24.724;2024-03-02T03:03:04;1.90;99.90
23729;DHT22;12045;60.214;24.724;2024-03-02T03:05:33;1.80;99.90
23729;DHT22;12045;60.214;24.724;2024-03-02T03:08:01;1.80;99.90
23729;DHT22;12045;60.214;24.724;2024-03-02T03:10:30;1.90;99.90
23729;DHT22;12045;60.214;24.724;2024-03-02T03:12:58;1.80;99.90
23729;DHT22;12045;60.214;24.724;2024-03-02T03:15:27;1.70;99.90
23729;DHT22;12045;60.214;24.724;2024-03-02T03:17:55;1.70;99.90
23729;DHT22;12045;60.214;24.724;2024-03-02T03:20:23;1.90;99.90
23729;DHT22;12045;60.214;24.724;2024-03-02T03:22:50;2.10;99.90
23729;DHT22;12045;60.214;24.724;2024-03-02T03:25:20;2.20;99.90
23729;DHT22;12045;60.214;24.724;2024-03-02T03:27:48;2.00;99.90
23729;DHT22;12045;60.214;24.724;2024-03-02T03:30:17;2.50;99.90
23729;DHT22;12045;60.214;24.724;2024-03-02T03:32:44;1.60;99.90
23729;DHT22;12045;60.214;24.724;2024-03-02T03:35:12;2.40;99.90
23729;DHT22;12045;60.214;24.724;2024-03-02T03:37:41;1.70;99.90
23729;DHT22;12045;60.214;24.724;2024-03-02T03:40:09;2.20;99.90
23729;DHT22;12045;60.214;24.724;2024-03-02T03:42:41;1.70;99.90
23729;DHT22;12045;60.214;24.724;2024-03-02T03:45:09;1.60;99.90
23729;DHT22;12045;60.214;24.724;2024-03-02T03:47:37;1.80;99.90
23729;DHT22;12045;60.214;24.724;2024-03-02T03:50:06;2.20;99.90
23729;DHT22;12045;60.214;24.724;2024-03-02T03:52:35;1.70;99.90
23729;DHT22;12045;60.214;24.724;2024-03-02T03:55:04;2.30;99.90
23729;DHT22;12045;60.214;24.724;2024-03-02T03:57:33;1.70;99.90
23729;DHT22;12045;60.214;24.724;2024-03-02T04:00:03;1.80;99.90
23729;DHT22;12045;60.214;24.724;2024-03-02T04:02:31;1.70;99.90
23729;DHT22;12045;60.214;24.724;2024-03-02T04:05:00;2.00;99.90
23729;DHT22;12045;60.214;24.724;2024-03-02T04:07:28;2.30;99.90
23729;DHT22;12045;60.214;24.724;2024-03-02T04:09:57;2.30;99.90
23729;DHT22;12045;60.214;24.724;2024-03-02T04:12:25;1.80;99.90
23729;DHT22;12045;60.214;24.724;2024-03-02T04:14:55;1.90;99.90
23729;DHT22;12045;60.214;24.724;2024-03-02T04:17:23;2.10;99.90
23729;DHT22;12045;60.214;24.724;2024-03-02T04:19:52;2.10;99.90
23729;DHT22;12045;60.214;24.724;2024-03-02T04:22:19;2.20;99.90
23729;DHT22;12045;60.214;24.724;2024-03-02T04:24:52;2.50;99.90
23729;DHT22;12045;60.214;24.724;2024-03-02T04:27:20;2.10;99.90
23729;DHT22;12045;60.214;24.724;2024-03-02T04:29:50;2.20;99.90
23729;DHT22;12045;60.214;24.724;2024-03-02T04:32:17;2.50;99.90
23729;DHT22;12045;60.214;24.724;2024-03-02T04:34:47;2.10;99.90
23729;DHT22;12045;60.214;24.724;2024-03-02T04:37:15;2.30;99.90
23729;DHT22;12045;60.214;24.724;2024-03-02T04:39:46;2.30;99.90
23729;DHT22;12045;60.214;24.724;2024-03-02T04:42:13;2.40;99.90
23729;DHT22;12045;60.214;24.724;2024-03-02T04:44:42;2.50;99.90
23729;DHT22;12045;60.214;24.724;2024-03-02T04:47:10;2.30;99.90
23729;DHT22;12045;60.214;24.724;2024-03-02T04:49:38;2.60;99.90
23729;DHT22;12045;60.214;24.724;2024-03-02T04:52:07;2.30;99.90
23729;DHT22;12045;60.214;24.724;2024-03-02T04:54:35;2.80;99.90
23729;DHT22;12045;60.214;24.724;2024-03-02T04:57:23;2.80;99.90
23729;DHT22;12045;60.214;24.724;2024-03-02T04:59:51;2.30;99.90
23729;DHT22;12045;60.214;24.724;2024-03-02T05:02:19;2.10;99.90
23729;DHT22;12045;60.214;24.724;2024-03-02T05:04:48;2.60;99.90
23729;DHT22;12045;60.214;24.724;2024-03-02T05:07:16;2.00;99.90
23729;DHT22;12045;60.214;24.724;2024-03-02T05:09:44;2.60;99.90
23729;DHT22;12045;60.214;24.724;2024-03-02T05:12:12;2.20;99.90
23729;DHT22;12045;60.214;24.724;2024-03-02T05:14:58;2.90;99.90
23729;DHT22;12045;60.214;24.724;2024-03-02T05:17:26;2.10;99.90
23729;DHT22;12045;60.214;24.724;2024-03-02T05:19:56;2.50;99.90
23729;DHT22;12045;60.214;24.724;2024-03-02T05:22:25;1.80;99.90
23729;DHT22;12045;60.214;24.724;2024-03-02T05:24:54;2.50;99.90
23729;DHT22;12045;60.214;24.724;2024-03-02T05:27:21;2.30;99.90
23729;DHT22;12045;60.214;24.724;2024-03-02T05:29:50;2.40;99.90
23729;DHT22;12045;60.214;24.724;2024-03-02T05:32:18;3.00;99.90
23729;DHT22;12045;60.214;24.724;2024-03-02T05:34:46;2.30;99.90
23729;DHT22;12045;60.214;24.724;2024-03-02T05:37:13;2.40;99.90
23729;DHT22;12045;60.214;24.724;2024-03-02T05:39:42;2.10;99.90
23729;DHT22;12045;60.214;24.724;2024-03-02T05:42:10;2.40;99.90
23729;DHT22;12045;60.214;24.724;2024-03-02T05:44:39;2.40;99.90
23729;DHT22;12045;60.214;24.724;2024-03-02T05:47:07;2.50;99.90
23729;DHT22;12045;60.214;24.724;2024-03-02T05:49:37;2.20;99.90
23729;DHT22;12045;60.214;24.724;2024-03-02T05:52:05;1.90;99.90
23729;DHT22;12045;60.214;24.724;2024-03-02T05:54:35;1.20;99.90
23729;DHT22;12045;60.214;24.724;2024-03-02T05:57:04;2.60;99.90
23729;DHT22;12045;60.214;24.724;2024-03-02T05:59:44;2.00;99.90
23729;DHT22;12045;60.214;24.724;2024-03-02T06:02:13;2.10;99.90
23729;DHT22;12045;60.214;24.724;2024-03-02T06:04:40;2.70;99.90
23729;DHT22;12045;60.214;24.724;2024-03-02T06:07:09;2.90;99.90
23729;DHT22;12045;60.214;24.724;2024-03-02T06:09:38;2.20;99.90
23729;DHT22;12045;60.214;24.724;2024-03-02T06:12:05;2.40;99.90
23729;DHT22;12045;60.214;24.724;2024-03-02T06:14:33;2.00;99.90
23729;DHT22;12045;60.214;24.724;2024-03-02T06:17:01;2.30;99.90
23729;DHT22;12045;60.214;24.724;2024-03-02T06:19:30;1.70;99.90
23729;DHT22;12045;60.214;24.724;2024-03-02T06:21:59;2.50;99.90
23729;DHT22;12045;60.214;24.724;2024-03-02T06:24:26;2.10;99.90
23729;DHT22;12045;60.214;24.724;2024-03-02T06:26:55;2.30;99.90
23729;DHT22;12045;60.214;24.724;2024-03-02T06:29:23;2.30;99.90
23729;DHT22;12045;60.214;24.724;2024-03-02T06:31:53;1.80;99.90
23729;DHT22;12045;60.214;24.724;2024-03-02T06:34:24;2.30;99.90
23729;DHT22;12045;60.214;24.724;2024-03-02T06:36:52;2.60;99.90
23729;DHT22;12045;60.214;24.724;2024-03-02T06:39:24;2.00;99.90
23729;DHT22;12045;60.214;24.724;2024-03-02T06:41:54;2.20;99.90
23729;DHT22;12045;60.214;24.724;2024-03-02T06:44:22;2.50;99.90
23729;DHT22;12045;60.214;24.724;2024-03-02T06:46:50;2.60;99.90
23729;DHT22;12045;60.214;24.724;2024-03-02T06:49:22;2.10;99.90
23729;DHT22;12045;60.214;24.724;2024-03-02T06:51:50;2.20;99.90
23729;DHT22;12045;60.214;24.724;2024-03-02T06:54:18;2.20;99.90
23729;DHT22;12045;60.214;24.724;2024-03-02T06:56:47;2.20;99.90
23729;DHT22;12045;60.214;24.724;2024-03-02T06:59:14;2.60;99.90
23729;DHT22;12045;60.214;24.724;2024-03-02T07:01:42;2.50;99.90
23729;DHT22;12045;60.214;24.724;2024-03-02T07:04:11;2.30;99.90
23729;DHT22;12045;60.214;24.724;2024-03-02T07:06:39;2.80;99.90
23729;DHT22;12045;60.214;24.724;2024-03-02T07:09:08;3.30;99.90
23729;DHT22;12045;60.214;24.724;2024-03-02T07:11:38;2.40;99.90
23729;DHT22;12045;60.214;24.724;2024-03-02T07:14:05;3.30;99.90
23729;DHT22;12045;60.214;24.724;2024-03-02T07:16:33;2.70;99.90
23729;DHT22;12045;60.214;24.724;2024-03-02T07:19:03;2.60;99.90
23729;DHT22;12045;60.214;24.724;2024-03-02T07:21:31;3.10;99.90
23729;DHT22;12045;60.214;24.724;2024-03-02T07:24:01;3.10;99.90
23729;DHT22;12045;60.214;24.724;2024-03-02T07:26:34;3.20;99.90
23729;DHT22;12045;60.214;24.724;2024-03-02T07:29:05;2.40;99.90
23729;DHT22;12045;60.214;24.724;2024-03-02T07:31:35;2.60;99.90
23729;DHT22;12045;60.214;24.724;2024-03-02T07:34:03;3.10;99.90
23729;DHT22;12045;60.214;24.724;2024-03-02T07:36:32;2.90;99.90
23729;DHT22;12045;60.214;24.724;2024-03-02T07:39:00;2.40;99.90
23729;DHT22;12045;60.214;24.724;2024-03-02T07:41:30;2.90;99.90
23729;DHT22;12045;60.214;24.724;2024-03-02T07:43:58;3.10;99.90
23729;DHT22;12045;60.214;24.724;2024-03-02T07:46:26;3.20;99.90
23729;DHT22;12045;60.214;24.724;2024-03-02T07:48:55;2.90;99.90
23729;DHT22;12045;60.214;24.724;2024-03-02T07:51:24;3.10;99.90
23729;DHT22;12045;60.214;24.724;2024-03-02T07:53:53;3.10;99.90
23729;DHT22;12045;60.214;24.724;2024-03-02T07:56:21;3.10;99.90
23729;DHT22;12045;60.214;24.724;2024-03-02T07:58:49;3.30;99.90
23729;DHT22;12045;60.214;24.724;2024-03-02T08:01:19;2.70;99.90
23729;DHT22;12045;60.214;24.724;2024-03-02T08:03:49;3.40;99.90
23729;DHT22;12045;60.214;24.724;2024-03-02T08:06:18;3.40;99.90
23729;DHT22;12045;60.214;24.724;2024-03-02T08:08:49;3.20;99.90
23729;DHT22;12045;60.214;24.724;2024-03-02T08:11:17;3.00;99.90
23729;DHT22;12045;60.214;24.724;2024-03-02T08:13:45;3.30;99.90
23729;DHT22;12045;60.214;24.724;2024-03-02T08:16:16;2.80;99.90
23729;DHT22;12045;60.214;24.724;2024-03-02T08:18:51;2.90;99.90
23729;DHT22;12045;60.214;24.724;2024-03-02T08:21:20;3.10;99.90
23729;DHT22;12045;60.214;24.724;2024-03-02T08:23:48;3.00;99.90
23729;DHT22;12045;60.214;24.724;2024-03-02T08:26:17;3.10;99.90
23729;DHT22;12045;60.214;24.724;2024-03-02T08:28:46;3.40;99.90
23729;DHT22;12045;60.214;24.724;2024-03-02T08:31:13;3.60;99.90
23729;DHT22;12045;60.214;24.724;2024-03-02T08:33:43;3.00;99.90
23729;DHT22;12045;60.214;24.724;2024-03-02T08:36:11;3.20;99.90
23729;DHT22;12045;60.214;24.724;2024-03-02T08:38:39;3.00;99.90
23729;DHT22;12045;60.214;24.724;2024-03-02T08:41:08;4.00;99.90
23729;DHT22;12045;60.214;24.724;2024-03-02T08:43:37;3.80;99.90
23729;DHT22;12045;60.214;24.724;2024-03-02T08:46:05;3.40;99.90
23729;DHT22;12045;60.214;24.724;2024-03-02T08:48:34;2.40;99.90
23729;DHT22;12045;60.214;24.724;2024-03-02T08:51:02;3.20;99.90
23729;DHT22;12045;60.214;24.724;2024-03-02T08:53:34;2.80;99.90
23729;DHT22;12045;60.214;24.724;2024-03-02T08:56:02;3.20;99.90
23729;DHT22;12045;60.214;24.724;2024-03-02T08:58:32;2.80;99.90
23729;DHT22;12045;60.214;24.724;2024-03-02T09:01:00;2.70;99.90
23729;DHT22;12045;60.214;24.724;2024-03-02T09:03:28;2.90;99.90
23729;DHT22;12045;60.214;24.724;2024-03-02T09:05:57;2.90;99.90
23729;DHT22;12045;60.214;24.724;2024-03-02T09:08:25;3.30;99.90
23729;DHT22;12045;60.214;24.724;2024-03-02T09:10:52;2.20;99.90
23729;DHT22;12045;60.214;24.724;2024-03-02T09:13:21;2.70;99.90
23729;DHT22;12045;60.214;24.724;2024-03-02T09:15:50;2.50;99.90
23729;DHT22;12045;60.214;24.724;2024-03-02T09:18:18;2.60;99.90
23729;DHT22;12045;60.214;24.724;2024-03-02T09:20:46;2.30;99.90
23729;DHT22;12045;60.214;24.724;2024-03-02T09:23:13;3.10;99.90
23729;DHT22;12045;60.214;24.724;2024-03-02T09:25:42;2.70;99.90
23729;DHT22;12045;60.214;24.724;2024-03-02T09:28:12;2.60;99.90
23729;DHT22;12045;60.214;24.724;2024-03-02T09:30:40;2.30;99.90
23729;DHT22;12045;60.214;24.724;2024-03-02T09:33:08;2.60;99.90
23729;DHT22;12045;60.214;24.724;2024-03-02T09:35:39;2.60;99.90
23729;DHT22;12045;60.214;24.724;2024-03-02T09:38:08;2.40;99.90
23729;DHT22;12045;60.214;24.724;2024-03-02T09:40:36;1.90;99.90
23729;DHT22;12045;60.214;24.724;2024-03-02T09:43:05;2.10;99.90
23729;DHT22;12045;60.214;24.724;2024-03-02T09:45:33;2.10;99.90
23729;DHT22;12045;60.214;24.724;2024-03-02T09:48:02;2.50;99.90
23729;DHT22;12045;60.214;24.724;2024-03-02T09:50:30;2.00;99.90
23729;DHT22;12045;60.214;24.724;2024-03-02T09:52:59;2.00;99.90
23729;DHT22;12045;60.214;24.724;2024-03-02T09:55:27;2.10;99.90
23729;DHT22;12045;60.214;24.724;2024-03-02T09:57:56;2.10;99.90
23729;DHT22;12045;60.214;24.724;2024-03-02T10:00:23;2.70;99.90
23729;DHT22;12045;60.214;24.724;2024-03-02T10:02:53;2.50;99.90
23729;DHT22;12045;60.214;24.724;2024-03-02T10:05:26;2.50;99.90
23729;DHT22;12045;60.214;24.724;2024-03-02T10:08:01;2.20;99.90
23729;DHT22;12045;60.214;24.724;2024-03-02T10:10:38;2.00;99.90
23729;DHT22;12045;60.214;24.724;2024-03-02T10:13:12;1.80;99.90
23729;DHT22;12045;60.214;24.724;2024-03-02T10:15:41;1.70;99.90
23729;DHT22;12045;60.214;24.724;2024-03-02T10:18:10;2.30;99.90
23729;DHT22;12045;60.214;24.724;2024-03-02T10:20:43;2.50;99.90
23729;DHT22;12045;60.214;24.724;2024-03-02T10:23:20;2.30;99.90
23729;DHT22;12045;60.214;24.724;2024-03-02T10:25:48;2.30;99.90
23729;DHT22;12045;60.214;24.724;2024-03-02T10:28:24;2.50;99.90
23729;DHT22;12045;60.214;24.724;2024-03-02T10:30:52;2.40;99.90
23729;DHT22;12045;60.214;24.724;2024-03-02T10:33:20;2.20;99.90
23729;DHT22;12045;60.214;24.724;2024-03-02T10:35:50;2.80;99.90
23729;DHT22;12045;60.214;24.724;2024-03-02T10:38:18;2.30;99.90
23729;DHT22;12045;60.214;24.724;2024-03-02T10:40:48;2.50;99.90
23729;DHT22;12045;60.214;24.724;2024-03-02T10:43:17;2.90;99.90
23729;DHT22;12045;60.214;24.724;2024-03-02T10:45:49;2.90;99.90
23729;DHT22;12045;60.214;24.724;2024-03-02T10:48:19;2.50;99.90
23729;DHT22;12045;60.214;24.724;2024-03-02T10:50:51;2.30;99.90
23729;DHT22;12045;60.214;24.724;2024-03-02T10:53:20;2.30;99.90
23729;DHT22;12045;60.214;24.724;2024-03-02T10:55:49;2.50;99.90
23729;DHT22;12045;60.214;24.724;2024-03-02T10:58:21;2.60;99.90
23729;DHT22;12045;60.214;24.724;2024-03-02T11:00:50;2.50;99.90
23729;DHT22;12045;60.214;24.724;2024-03-02T11:03:18;2.40;99.90
23729;DHT22;12045;60.214;24.724;2024-03-02T11:05:47;2.30;99.90
23729;DHT22;12045;60.214;24.724;2024-03-02T11:08:18;2.60;99.90
23729;DHT22;12045;60.214;24.724;2024-03-02T11:11:06;2.20;99.90
23729;DHT22;12045;60.214;24.724;2024-03-02T11:13:36;1.80;99.90
23729;DHT22;12045;60.214;24.724;2024-03-02T11:16:18;2.50;99.90
23729;DHT22;12045;60.214;24.724;2024-03-02T11:18:52;2.10;99.90
23729;DHT22;12045;60.214;24.724;2024-03-02T11:21:21;2.10;99.90
23729;DHT22;12045;60.214;24.724;2024-03-02T11:23:51;2.50;99.90
23729;DHT22;12045;60.214;24.724;2024-03-02T11:26:20;2.40;99.90
23729;DHT22;12045;60.214;24.724;2024-03-02T11:28:48;2.10;99.90
23729;DHT22;12045;60.214;24.724;2024-03-02T11:31:16;2.30;99.90
23729;DHT22;12045;60.214;24.724;2024-03-02T11:33:47;2.10;99.90
23729;DHT22;12045;60.214;24.724;2024-03-02T11:36:15;2.50;99.90
23729;DHT22;12045;60.214;24.724;2024-03-02T11:38:43;2.20;99.90
23729;DHT22;12045;60.214;24.724;2024-03-02T11:41:14;1.90;99.90
23729;DHT22;12045;60.214;24.724;2024-03-02T11:43:42;2.50;99.90
23729;DHT22;12045;60.214;24.724;2024-03-02T11:46:11;2.90;99.90
23729;DHT22;12045;60.214;24.724;2024-03-02T11:48:40;2.70;99.90
23729;DHT22;12045;60.214;24.724;2024-03-02T11:51:08;2.90;99.90
23729;DHT22;12045;60.214;24.724;2024-03-02T11:53:38;2.90;99.90
23729;DHT22;12045;60.214;24.724;2024-03-02T11:56:09;2.70;99.90
23729;DHT22;12045;60.214;24.724;2024-03-02T11:58:40;2.80;99.90
23729;DHT22;12045;60.214;24.724;2024-03-02T12:01:10;2.50;99.90
23729;DHT22;12045;60.214;24.724;2024-03-02T12:03:39;2.70;99.90
23729;DHT22;12045;60.214;24.724;2024-03-02T12:06:07;2.60;99.90
23729;DHT22;12045;60.214;24.724;2024-03-02T12:08:38;3.20;99.90
23729;DHT22;12045;60.214;24.724;2024-03-02T12:11:07;2.80;99.90
23729;DHT22;12045;60.214;24.724;2024-03-02T12:13:36;3.00;99.90
23729;DHT22;12045;60.214;24.724;2024-03-02T12:16:04;2.90;99.90
23729;DHT22;12045;60.214;24.724;2024-03-02T12:18:32;2.30;99.90
23729;DHT22;12045;60.214;24.724;2024-03-02T12:21:00;3.10;99.90
23729;DHT22;12045;60.214;24.724;2024-03-02T12:23:30;2.80;99.90
23729;DHT22;12045;60.214;24.724;2024-03-02T12:25:58;2.70;99.90
23729;DHT22;12045;60.214;24.724;2024-03-02T12:28:27;2.70;99.90
23729;DHT22;12045;60.214;24.724;2024-03-02T12:30:58;2.60;99.90
23729;DHT22;12045;60.214;24.724;2024-03-02T12:33:27;3.10;99.90
23729;DHT22;12045;60.214;24.724;2024-03-02T12:35:57;3.00;99.90
23729;DHT22;12045;60.214;24.724;2024-03-02T12:38:26;2.50;99.90
23729;DHT22;12045;60.214;24.724;2024-03-02T12:40:56;3.50;99.90
23729;DHT22;12045;60.214;24.724;2024-03-02T12:43:30;3.10;99.90
23729;DHT22;12045;60.214;24.724;2024-03-02T12:45:59;3.30;99.90
23729;DHT22;12045;60.214;24.724;2024-03-02T12:48:26;2.80;99.90
23729;DHT22;12045;60.214;24.724;2024-03-02T12:51:01;3.30;99.90
23729;DHT22;12045;60.214;24.724;2024-03-02T12:53:30;2.90;99.90
23729;DHT22;12045;60.214;24.724;2024-03-02T12:55:59;2.70;99.90
23729;DHT22;12045;60.214;24.724;2024-03-02T12:58:27;2.50;99.90
23729;DHT22;12045;60.214;24.724;2024-03-02T13:01:10;3.40;99.90
23729;DHT22;12045;60.214;24.724;2024-03-02T13:03:38;2.50;99.90
23729;DHT22;12045;60.214;24.724;2024-03-02T13:06:07;3.10;99.90
23729;DHT22;12045;60.214;24.724;2024-03-02T13:08:37;3.00;99.90
23729;DHT22;12045;60.214;24.724;2024-03-02T13:11:09;3.00;99.90
23729;DHT22;12045;60.214;24.724;2024-03-02T13:13:40;3.00;99.90
23729;DHT22;12045;60.214;24.724;2024-03-02T13:16:11;3.00;99.90
23729;DHT22;12045;60.214;24.724;2024-03-02T13:18:40;3.10;99.90
23729;DHT22;12045;60.214;24.724;2024-03-02T13:21:10;3.00;99.90
23729;DHT22;12045;60.214;24.724;2024-03-02T13:23:41;3.10;99.90
23729;DHT22;12045;60.214;24.724;2024-03-02T13:26:09;3.10;99.90
23729;DHT22;12045;60.214;24.724;2024-03-02T13:28:40;3.60;99.90
23729;DHT22;12045;60.214;24.724;2024-03-02T13:31:11;3.10;99.90
23729;DHT22;12045;60.214;24.724;2024-03-02T13:33:42;2.70;99.90
23729;DHT22;12045;60.214;24.724;2024-03-02T13:36:10;4.20;99.90
23729;DHT22;12045;60.214;24.724;2024-03-02T13:38:39;3.30;99.90
23729;DHT22;12045;60.214;24.724;2024-03-02T13:41:07;3.80;99.90
23729;DHT22;12045;60.214;24.724;2024-03-02T13:43:36;3.10;99.90
23729;DHT22;12045;60.214;24.724;2024-03-02T13:46:07;3.20;99.90
23729;DHT22;12045;60.214;24.724;2024-03-02T13:48:36;3.20;99.90
23729;DHT22;12045;60.214;24.724;2024-03-02T13:51:04;3.10;99.90
23729;DHT22;12045;60.214;24.724;2024-03-02T13:53:34;3.50;99.90
23729;DHT22;12045;60.214;24.724;2024-03-02T13:56:03;3.40;99.90
23729;DHT22;12045;60.214;24.724;2024-03-02T13:58:31;2.70;99.90
23729;DHT22;12045;60.214;24.724;2024-03-02T14:00:59;3.30;99.90
23729;DHT22;12045;60.214;24.724;2024-03-02T14:03:29;3.20;99.90
23729;DHT22;12045;60.214;24.724;2024-03-02T14:05:58;3.70;99.90
23729;DHT22;12045;60.214;24.724;2024-03-02T14:08:28;3.20;99.90
23729;DHT22;12045;60.214;24.724;2024-03-02T14:10:59;3.10;99.90
23729;DHT22;12045;60.214;24.724;2024-03-02T14:13:27;3.40;99.90
23729;DHT22;12045;60.214;24.724;2024-03-02T14:15:56;3.70;99.90
23729;DHT22;12045;60.214;24.724;2024-03-02T14:18:26;3.50;99.90
23729;DHT22;12045;60.214;24.724;2024-03-02T14:20:55;3.30;99.90
23729;DHT22;12045;60.214;24.724;2024-03-02T14:23:23;3.10;99.90
23729;DHT22;12045;60.214;24.724;2024-03-02T14:25:53;3.40;99.90
23729;DHT22;12045;60.214;24.724;2024-03-02T14:28:22;3.00;99.90
23729;DHT22;12045;60.214;24.724;2024-03-02T14:31:10;3.00;99.90
23729;DHT22;12045;60.214;24.724;2024-03-02T14:33:38;2.10;99.90
23729;DHT22;12045;60.214;24.724;2024-03-02T14:36:07;2.90;99.90
23729;DHT22;12045;60.214;24.724;2024-03-02T14:38:38;2.70;99.90
23729;DHT22;12045;60.214;24.724;2024-03-02T14:41:05;3.10;99.90
23729;DHT22;12045;60.214;24.724;2024-03-02T14:43:34;3.50;99.90
23729;DHT22;12045;60.214;24.724;2024-03-02T14:46:01;3.20;99.90
23729;DHT22;12045;60.214;24.724;2024-03-02T14:48:30;2.60;99.90
23729;DHT22;12045;60.214;24.724;2024-03-02T14:50:58;3.00;99.90
23729;DHT22;12045;60.214;24.724;2024-03-02T14:53:26;3.40;99.90
23729;DHT22;12045;60.214;24.724;2024-03-02T14:55:54;2.70;99.90
23729;DHT22;12045;60.214;24.724;2024-03-02T14:58:23;3.00;99.90
23729;DHT22;12045;60.214;24.724;2024-03-02T15:00:51;3.20;99.90
23729;DHT22;12045;60.214;24.724;2024-03-02T15:03:20;3.60;99.90
23729;DHT22;12045;60.214;24.724;2024-03-02T15:05:49;2.90;99.90
23729;DHT22;12045;60.214;24.724;2024-03-02T15:08:19;4.00;99.90
23729;DHT22;12045;60.214;24.724;2024-03-02T15:10:47;3.40;99.90
23729;DHT22;12045;60.214;24.724;2024-03-02T15:13:15;3.20;99.90
23729;DHT22;12045;60.214;24.724;2024-03-02T15:15:44;3.20;99.90
23729;DHT22;12045;60.214;24.724;2024-03-02T15:18:12;3.30;99.90
23729;DHT22;12045;60.214;24.724;2024-03-02T15:20:41;2.90;99.90
23729;DHT22;12045;60.214;24.724;2024-03-02T15:23:08;2.60;99.90
23729;DHT22;12045;60.214;24.724;2024-03-02T15:25:36;3.30;99.90
23729;DHT22;12045;60.214;24.724;2024-03-02T15:28:04;2.30;99.90
23729;DHT22;12045;60.214;24.724;2024-03-02T15:30:33;3.10;99.90
23729;DHT22;12045;60.214;24.724;2024-03-02T15:33:00;3.50;99.90
23729;DHT22;12045;60.214;24.724;2024-03-02T15:35:28;2.70;99.90
23729;DHT22;12045;60.214;24.724;2024-03-02T15:37:55;3.10;99.90
23729;DHT22;12045;60.214;24.724;2024-03-02T15:40:23;3.50;99.90
23729;DHT22;12045;60.214;24.724;2024-03-02T15:42:52;3.30;99.90